sensor_id;sensor_type;location;lat;lon;timestamp;P1;durP1;ratioP1;P2;durP2;ratioP2
10847;SDS011;5477;48.806;9.154;2022-12-10T00:01:06;23.67;;;16.00;;
10847;SDS011;5477;48.806;9.154;2022-12-10T00:03:37;22.80;;;15.43;;
10847;SDS011;5477;48.806;9.154;2022-12-10T00:06:05;27.63;;;18.77;;
10847;SDS011;5477;48.806;9.154;2022-12-10T00:08:35;25.30;;;16.27;;
10847;SDS011;5477;48.806;9.154;2022-12-10T00:11:04;30.20;;;18.40;;
10847;SDS011;5477;48.806;9.154;2022-12-10T00:13:33;27.43;;;17.33;;
10847;SDS011;5477;48.806;9.154;2022-12-10T00:16:03;28.73;;;19.40;;
10847;SDS011;5477;48.806;9.154;2022-12-10T00:18:32;25.97;;;17.83;;
10847;SDS011;5477;48.806;9.154;2022-12-10T00:21:03;24.43;;;16.60;;
10847;SDS011;5477;48.806;9.154;2022-12-10T00:23:33;22.73;;;16.03;;
10847;SDS011;5477;48.806;9.154;2022-12-10T00:26:02;22.27;;;16.23;;
10847;SDS011;5477;48.806;9.154;2022-12-10T00:28:31;22.13;;;15.60;;
10847;SDS011;5477;48.806;9.154;2022-12-10T00:31:03;23.17;;;15.43;;
10847;SDS011;5477;48.806;9.154;2022-12-10T00:33:32;22.10;;;16.00;;
10847;SDS011;5477;48.806;9.154;2022-12-10T00:36:02;23.70;;;14.93;;
10847;SDS011;5477;48.806;9.154;2022-12-10T00:38:31;21.80;;;15.67;;
10847;SDS011;5477;48.806;9.154;2022-12-10T00:40:59;22.03;;;14.73;;
10847;SDS011;5477;48.806;9.154;2022-12-10T00:43:27;23.30;;;15.07;;
10847;SDS011;5477;48.806;9.154;2022-12-10T00:45:55;24.70;;;16.50;;
10847;SDS011;5477;48.806;9.154;2022-12-10T00:48:23;22.77;;;15.23;;
10847;SDS011;5477;48.806;9.154;2022-12-10T00:50:55;21.63;;;14.77;;
10847;SDS011;5477;48.806;9.154;2022-12-10T00:53:26;21.07;;;15.30;;
10847;SDS011;5477;48.806;9.154;2022-12-10T00:55:56;19.93;;;14.73;;
10847;SDS011;5477;48.806;9.154;2022-12-10T00:58:26;20.93;;;14.37;;
10847;SDS011;5477;48.806;9.154;2022-12-10T01:01:01;21.60;;;14.43;;
10847;SDS011;5477;48.806;9.154;2022-12-10T01:03:34;21.53;;;14.03;;
10847;SDS011;5477;48.806;9.154;2022-12-10T01:06:07;22.03;;;14.83;;
10847;SDS011;5477;48.806;9.154;2022-12-10T01:08:38;22.67;;;14.77;;
10847;SDS011;5477;48.806;9.154;2022-12-10T01:11:06;21.07;;;14.37;;
10847;SDS011;5477;48.806;9.154;2022-12-10T01:13:35;20.40;;;14.20;;
10847;SDS011;5477;48.806;9.154;2022-12-10T01:16:04;23.73;;;14.70;;
10847;SDS011;5477;48.806;9.154;2022-12-10T01:18:52;21.37;;;14.83;;
10847;SDS011;5477;48.806;9.154;2022-12-10T01:21:20;25.37;;;15.17;;
10847;SDS011;5477;48.806;9.154;2022-12-10T01:23:50;23.90;;;14.23;;
10847;SDS011;5477;48.806;9.154;2022-12-10T01:26:20;22.27;;;14.27;;
10847;SDS011;5477;48.806;9.154;2022-12-10T01:28:49;22.33;;;14.73;;
10847;SDS011;5477;48.806;9.154;2022-12-10T01:31:18;23.80;;;14.70;;
10847;SDS011;5477;48.806;9.154;2022-12-10T01:33:48;20.40;;;14.30;;
10847;SDS011;5477;48.806;9.154;2022-12-10T01:36:18;19.47;;;14.33;;
10847;SDS011;5477;48.806;9.154;2022-12-10T01:38:48;22.13;;;14.37;;
10847;SDS011;5477;48.806;9.154;2022-12-10T01:41:19;21.53;;;14.40;;
10847;SDS011;5477;48.806;9.154;2022-12-10T01:43:51;21.27;;;14.27;;
10847;SDS011;5477;48.806;9.154;2022-12-10T01:46:22;21.60;;;13.70;;
10847;SDS011;5477;48.806;9.154;2022-12-10T01:48:51;21.67;;;14.13;;
10847;SDS011;5477;48.806;9.154;2022-12-10T01:51:20;20.93;;;14.63;;
10847;SDS011;5477;48.806;9.154;2022-12-10T01:53:49;24.23;;;15.77;;
10847;SDS011;5477;48.806;9.154;2022-12-10T01:56:19;22.77;;;15.20;;
10847;SDS011;5477;48.806;9.154;2022-12-10T01:58:48;22.77;;;14.67;;
10847;SDS011;5477;48.806;9.154;2022-12-10T02:01:21;19.77;;;14.00;;
10847;SDS011;5477;48.806;9.154;2022-12-10T02:03:57;20.87;;;14.70;;
10847;SDS011;5477;48.806;9.154;2022-12-10T02:09:23;21.80;;;14.17;;
10847;SDS011;5477;48.806;9.154;2022-12-10T02:12:02;17.80;;;13.37;;
10847;SDS011;5477;48.806;9.154;2022-12-10T02:14:41;22.80;;;15.30;;
10847;SDS011;5477;48.806;9.154;2022-12-10T02:17:19;19.43;;;14.30;;
10847;SDS011;5477;48.806;9.154;2022-12-10T02:20:03;19.43;;;14.30;;
10847;SDS011;5477;48.806;9.154;2022-12-10T02:22:36;23.53;;;15.80;;
10847;SDS011;5477;48.806;9.154;2022-12-10T02:25:07;20.47;;;14.20;;
10847;SDS011;5477;48.806;9.154;2022-12-10T02:27:42;19.93;;;13.77;;
10847;SDS011;5477;48.806;9.154;2022-12-10T02:30:16;20.03;;;13.53;;
10847;SDS011;5477;48.806;9.154;2022-12-10T02:32:45;20.57;;;14.03;;
10847;SDS011;5477;48.806;9.154;2022-12-10T02:35:18;23.00;;;14.67;;
10847;SDS011;5477;48.806;9.154;2022-12-10T02:37:51;22.87;;;14.77;;
10847;SDS011;5477;48.806;9.154;2022-12-10T02:40:24;21.20;;;14.33;;
10847;SDS011;5477;48.806;9.154;2022-12-10T02:42:57;21.03;;;14.40;;
10847;SDS011;5477;48.806;9.154;2022-12-10T02:45:27;21.87;;;14.70;;
10847;SDS011;5477;48.806;9.154;2022-12-10T02:47:58;21.10;;;14.13;;
10847;SDS011;5477;48.806;9.154;2022-12-10T02:50:35;20.47;;;14.17;;
10847;SDS011;5477;48.806;9.154;2022-12-10T02:53:03;21.20;;;14.60;;
10847;SDS011;5477;48.806;9.154;2022-12-10T02:55:36;22.57;;;15.13;;
10847;SDS011;5477;48.806;9.154;2022-12-10T02:58:16;22.03;;;14.70;;
10847;SDS011;5477;48.806;9.154;2022-12-10T03:00:53;22.43;;;15.57;;
10847;SDS011;5477;48.806;9.154;2022-12-10T03:03:28;20.77;;;14.90;;
10847;SDS011;5477;48.806;9.154;2022-12-10T03:06:06;20.67;;;14.83;;
10847;SDS011;5477;48.806;9.154;2022-12-10T03:08:40;22.73;;;14.80;;
10847;SDS011;5477;48.806;9.154;2022-12-10T03:11:13;21.43;;;14.00;;
10847;SDS011;5477;48.806;9.154;2022-12-10T03:13:44;21.10;;;15.63;;
10847;SDS011;5477;48.806;9.154;2022-12-10T03:16:20;19.03;;;13.83;;
10847;SDS011;5477;48.806;9.154;2022-12-10T03:18:51;20.83;;;13.90;;
10847;SDS011;5477;48.806;9.154;2022-12-10T03:21:23;22.40;;;15.37;;
10847;SDS011;5477;48.806;9.154;2022-12-10T03:23:53;21.63;;;14.97;;
10847;SDS011;5477;48.806;9.154;2022-12-10T03:26:22;23.97;;;15.60;;
10847;SDS011;5477;48.806;9.154;2022-12-10T03:28:51;21.07;;;15.07;;
10847;SDS011;5477;48.806;9.154;2022-12-10T03:31:25;21.63;;;15.07;;
10847;SDS011;5477;48.806;9.154;2022-12-10T03:33:55;22.87;;;16.43;;
10847;SDS011;5477;48.806;9.154;2022-12-10T03:36:23;22.73;;;14.63;;
10847;SDS011;5477;48.806;9.154;2022-12-10T03:38:53;22.33;;;14.90;;
10847;SDS011;5477;48.806;9.154;2022-12-10T03:41:22;23.23;;;14.60;;
10847;SDS011;5477;48.806;9.154;2022-12-10T03:43:53;21.60;;;15.33;;
10847;SDS011;5477;48.806;9.154;2022-12-10T03:46:22;21.07;;;14.20;;
10847;SDS011;5477;48.806;9.154;2022-12-10T03:48:54;20.33;;;14.03;;
10847;SDS011;5477;48.806;9.154;2022-12-10T03:51:22;18.17;;;13.80;;
10847;SDS011;5477;48.806;9.154;2022-12-10T03:53:51;19.60;;;13.90;;
10847;SDS011;5477;48.806;9.154;2022-12-10T03:56:19;22.70;;;14.63;;
10847;SDS011;5477;48.806;9.154;2022-12-10T03:58:48;22.17;;;13.97;;
10847;SDS011;5477;48.806;9.154;2022-12-10T04:01:16;19.73;;;14.27;;
10847;SDS011;5477;48.806;9.154;2022-12-10T04:03:46;21.50;;;14.43;;
10847;SDS011;5477;48.806;9.154;2022-12-10T04:06:15;22.20;;;13.97;;
10847;SDS011;5477;48.806;9.154;2022-12-10T04:08:44;20.67;;;14.10;;
10847;SDS011;5477;48.806;9.154;2022-12-10T04:11:14;20.80;;;14.10;;
10847;SDS011;5477;48.806;9.154;2022-12-10T04:13:42;20.83;;;14.33;;
10847;SDS011;5477;48.806;9.154;2022-12-10T04:16:28;22.40;;;14.77;;
10847;SDS011;5477;48.806;9.154;2022-12-10T04:18:59;19.70;;;13.83;;
10847;SDS011;5477;48.806;9.154;2022-12-10T04:21:29;21.00;;;14.40;;
10847;SDS011;5477;48.806;9.154;2022-12-10T04:24:17;20.67;;;15.23;;
10847;SDS011;5477;48.806;9.154;2022-12-10T04:27:06;21.33;;;14.47;;
10847;SDS011;5477;48.806;9.154;2022-12-10T04:29:35;22.70;;;14.50;;
10847;SDS011;5477;48.806;9.154;2022-12-10T04:32:04;23.47;;;14.87;;
10847;SDS011;5477;48.806;9.154;2022-12-10T04:34:33;21.67;;;15.23;;
10847;SDS011;5477;48.806;9.154;2022-12-10T04:37:02;22.00;;;14.70;;
10847;SDS011;5477;48.806;9.154;2022-12-10T04:39:30;23.70;;;14.97;;
10847;SDS011;5477;48.806;9.154;2022-12-10T04:41:59;20.37;;;14.63;;
10847;SDS011;5477;48.806;9.154;2022-12-10T04:44:28;23.27;;;15.20;;
10847;SDS011;5477;48.806;9.154;2022-12-10T04:46:58;22.23;;;14.63;;
10847;SDS011;5477;48.806;9.154;2022-12-10T04:49:27;21.00;;;13.87;;
10847;SDS011;5477;48.806;9.154;2022-12-10T04:51:56;22.77;;;15.67;;
10847;SDS011;5477;48.806;9.154;2022-12-10T04:54:24;21.40;;;14.67;;
10847;SDS011;5477;48.806;9.154;2022-12-10T04:56:52;23.50;;;15.70;;
10847;SDS011;5477;48.806;9.154;2022-12-10T04:59:20;23.27;;;14.87;;
10847;SDS011;5477;48.806;9.154;2022-12-10T05:01:48;20.50;;;15.10;;
10847;SDS011;5477;48.806;9.154;2022-12-10T05:04:16;23.97;;;15.27;;
10847;SDS011;5477;48.806;9.154;2022-12-10T05:06:47;23.80;;;15.70;;
10847;SDS011;5477;48.806;9.154;2022-12-10T05:09:17;24.23;;;15.77;;
10847;SDS011;5477;48.806;9.154;2022-12-10T05:11:45;22.40;;;14.83;;
10847;SDS011;5477;48.806;9.154;2022-12-10T05:14:14;22.97;;;15.57;;
10847;SDS011;5477;48.806;9.154;2022-12-10T05:16:42;23.17;;;14.77;;
10847;SDS011;5477;48.806;9.154;2022-12-10T05:19:11;23.63;;;16.00;;
10847;SDS011;5477;48.806;9.154;2022-12-10T05:21:39;22.93;;;15.17;;
10847;SDS011;5477;48.806;9.154;2022-12-10T05:24:25;22.50;;;15.03;;
10847;SDS011;5477;48.806;9.154;2022-12-10T05:26:53;24.10;;;15.50;;
10847;SDS011;5477;48.806;9.154;2022-12-10T05:29:21;22.90;;;15.13;;
10847;SDS011;5477;48.806;9.154;2022-12-10T05:31:49;24.90;;;15.47;;
10847;SDS011;5477;48.806;9.154;2022-12-10T05:34:17;22.20;;;15.33;;
10847;SDS011;5477;48.806;9.154;2022-12-10T05:36:45;23.43;;;15.30;;
10847;SDS011;5477;48.806;9.154;2022-12-10T05:39:13;20.77;;;15.13;;
10847;SDS011;5477;48.806;9.154;2022-12-10T05:41:42;21.50;;;14.33;;
10847;SDS011;5477;48.806;9.154;2022-12-10T05:44:12;21.43;;;14.57;;
10847;SDS011;5477;48.806;9.154;2022-12-10T05:46:40;22.73;;;15.07;;
10847;SDS011;5477;48.806;9.154;2022-12-10T05:49:08;26.30;;;16.23;;
10847;SDS011;5477;48.806;9.154;2022-12-10T05:51:36;21.67;;;15.17;;
10847;SDS011;5477;48.806;9.154;2022-12-10T05:54:05;24.63;;;15.60;;
10847;SDS011;5477;48.806;9.154;2022-12-10T05:56:36;21.70;;;14.57;;
10847;SDS011;5477;48.806;9.154;2022-12-10T05:59:05;22.00;;;15.07;;
10847;SDS011;5477;48.806;9.154;2022-12-10T06:01:41;22.23;;;14.77;;
10847;SDS011;5477;48.806;9.154;2022-12-10T06:04:10;21.20;;;14.83;;
10847;SDS011;5477;48.806;9.154;2022-12-10T06:06:39;23.57;;;15.50;;
10847;SDS011;5477;48.806;9.154;2022-12-10T06:09:10;21.63;;;14.73;;
10847;SDS011;5477;48.806;9.154;2022-12-10T06:11:40;21.13;;;14.00;;
10847;SDS011;5477;48.806;9.154;2022-12-10T06:14:10;22.00;;;14.87;;
10847;SDS011;5477;48.806;9.154;2022-12-10T06:16:38;21.67;;;14.93;;
10847;SDS011;5477;48.806;9.154;2022-12-10T06:19:07;20.83;;;14.87;;
10847;SDS011;5477;48.806;9.154;2022-12-10T06:21:35;23.40;;;15.03;;
10847;SDS011;5477;48.806;9.154;2022-12-10T06:24:04;23.17;;;15.17;;
10847;SDS011;5477;48.806;9.154;2022-12-10T06:26:32;21.23;;;14.33;;
10847;SDS011;5477;48.806;9.154;2022-12-10T06:29:00;23.43;;;15.10;;
10847;SDS011;5477;48.806;9.154;2022-12-10T06:31:32;22.07;;;14.27;;
10847;SDS011;5477;48.806;9.154;2022-12-10T06:34:00;22.73;;;15.07;;
10847;SDS011;5477;48.806;9.154;2022-12-10T06:36:28;22.70;;;15.00;;
10847;SDS011;5477;48.806;9.154;2022-12-10T06:38:56;23.13;;;15.40;;
10847;SDS011;5477;48.806;9.154;2022-12-10T06:41:24;21.30;;;14.90;;
10847;SDS011;5477;48.806;9.154;2022-12-10T06:43:52;20.63;;;14.87;;
10847;SDS011;5477;48.806;9.154;2022-12-10T06:46:20;26.03;;;14.77;;
10847;SDS011;5477;48.806;9.154;2022-12-10T06:48:49;24.17;;;15.97;;
10847;SDS011;5477;48.806;9.154;2022-12-10T06:51:17;23.70;;;15.20;;
10847;SDS011;5477;48.806;9.154;2022-12-10T06:53:46;23.40;;;16.40;;
10847;SDS011;5477;48.806;9.154;2022-12-10T06:56:15;25.07;;;16.73;;
10847;SDS011;5477;48.806;9.154;2022-12-10T06:58:45;26.20;;;17.97;;
10847;SDS011;5477;48.806;9.154;2022-12-10T07:01:14;22.53;;;14.40;;
10847;SDS011;5477;48.806;9.154;2022-12-10T07:03:47;22.10;;;13.70;;
10847;SDS011;5477;48.806;9.154;2022-12-10T07:06:16;21.67;;;14.70;;
10847;SDS011;5477;48.806;9.154;2022-12-10T07:08:47;21.23;;;14.03;;
10847;SDS011;5477;48.806;9.154;2022-12-10T07:11:16;24.37;;;15.40;;
10847;SDS011;5477;48.806;9.154;2022-12-10T07:13:45;21.00;;;15.03;;
10847;SDS011;5477;48.806;9.154;2022-12-10T07:16:14;24.30;;;15.93;;
10847;SDS011;5477;48.806;9.154;2022-12-10T07:18:43;21.37;;;14.80;;
10847;SDS011;5477;48.806;9.154;2022-12-10T07:21:19;23.30;;;16.23;;
10847;SDS011;5477;48.806;9.154;2022-12-10T07:23:49;22.67;;;14.57;;
10847;SDS011;5477;48.806;9.154;2022-12-10T07:26:19;20.30;;;14.50;;
10847;SDS011;5477;48.806;9.154;2022-12-10T07:28:48;20.67;;;14.50;;
10847;SDS011;5477;48.806;9.154;2022-12-10T07:31:19;23.20;;;15.50;;
10847;SDS011;5477;48.806;9.154;2022-12-10T07:33:48;22.47;;;14.93;;
10847;SDS011;5477;48.806;9.154;2022-12-10T07:36:16;23.20;;;15.67;;
10847;SDS011;5477;48.806;9.154;2022-12-10T07:38:46;23.40;;;15.30;;
10847;SDS011;5477;48.806;9.154;2022-12-10T07:41:14;23.07;;;15.43;;
10847;SDS011;5477;48.806;9.154;2022-12-10T07:43:44;21.93;;;15.40;;
10847;SDS011;5477;48.806;9.154;2022-12-10T07:46:14;21.97;;;15.03;;
10847;SDS011;5477;48.806;9.154;2022-12-10T07:48:48;22.53;;;15.13;;
10847;SDS011;5477;48.806;9.154;2022-12-10T07:51:17;25.67;;;14.97;;
10847;SDS011;5477;48.806;9.154;2022-12-10T07:53:48;23.30;;;15.63;;
10847;SDS011;5477;48.806;9.154;2022-12-10T07:56:18;26.30;;;16.50;;
10847;SDS011;5477;48.806;9.154;2022-12-10T07:58:47;26.47;;;16.63;;
10847;SDS011;5477;48.806;9.154;2022-12-10T08:01:16;26.83;;;15.70;;
10847;SDS011;5477;48.806;9.154;2022-12-10T08:03:49;24.73;;;15.90;;
10847;SDS011;5477;48.806;9.154;2022-12-10T08:06:20;21.40;;;15.10;;
10847;SDS011;5477;48.806;9.154;2022-12-10T08:08:48;23.10;;;15.37;;
10847;SDS011;5477;48.806;9.154;2022-12-10T08:11:18;24.07;;;16.17;;
10847;SDS011;5477;48.806;9.154;2022-12-10T08:13:47;25.63;;;16.27;;
10847;SDS011;5477;48.806;9.154;2022-12-10T08:16:22;24.60;;;15.73;;
10847;SDS011;5477;48.806;9.154;2022-12-10T08:18:53;26.87;;;15.77;;
10847;SDS011;5477;48.806;9.154;2022-12-10T08:21:24;28.80;;;18.03;;
10847;SDS011;5477;48.806;9.154;2022-12-10T08:23:53;26.93;;;17.03;;
10847;SDS011;5477;48.806;9.154;2022-12-10T08:26:22;24.20;;;15.90;;
10847;SDS011;5477;48.806;9.154;2022-12-10T08:28:52;24.07;;;16.57;;
10847;SDS011;5477;48.806;9.154;2022-12-10T08:31:21;33.77;;;19.87;;
10847;SDS011;5477;48.806;9.154;2022-12-10T08:33:50;31.77;;;20.63;;
10847;SDS011;5477;48.806;9.154;2022-12-10T08:36:19;28.43;;;18.13;;
10847;SDS011;5477;48.806;9.154;2022-12-10T08:38:48;24.77;;;16.50;;
10847;SDS011;5477;48.806;9.154;2022-12-10T08:41:18;32.17;;;19.23;;
10847;SDS011;5477;48.806;9.154;2022-12-10T08:43:47;31.33;;;19.30;;
10847;SDS011;5477;48.806;9.154;2022-12-10T08:46:16;34.47;;;20.13;;
10847;SDS011;5477;48.806;9.154;2022-12-10T08:48:44;25.03;;;15.90;;
10847;SDS011;5477;48.806;9.154;2022-12-10T08:51:13;24.87;;;15.97;;
10847;SDS011;5477;48.806;9.154;2022-12-10T08:53:43;27.03;;;17.70;;
10847;SDS011;5477;48.806;9.154;2022-12-10T08:56:13;26.90;;;17.10;;
10847;SDS011;5477;48.806;9.154;2022-12-10T08:58:41;21.30;;;14.97;;
10847;SDS011;5477;48.806;9.154;2022-12-10T09:01:10;24.33;;;16.57;;
10847;SDS011;5477;48.806;9.154;2022-12-10T09:03:39;25.37;;;16.03;;
10847;SDS011;5477;48.806;9.154;2022-12-10T09:06:08;23.10;;;15.73;;
10847;SDS011;5477;48.806;9.154;2022-12-10T09:08:38;20.77;;;14.73;;
10847;SDS011;5477;48.806;9.154;2022-12-10T09:11:07;25.27;;;15.70;;
10847;SDS011;5477;48.806;9.154;2022-12-10T09:13:38;24.07;;;16.87;;
10847;SDS011;5477;48.806;9.154;2022-12-10T09:16:06;22.50;;;16.33;;
10847;SDS011;5477;48.806;9.154;2022-12-10T09:18:36;24.93;;;15.77;;
10847;SDS011;5477;48.806;9.154;2022-12-10T09:21:04;21.93;;;15.17;;
10847;SDS011;5477;48.806;9.154;2022-12-10T09:23:33;28.93;;;18.07;;
10847;SDS011;5477;48.806;9.154;2022-12-10T09:26:01;32.53;;;18.77;;
10847;SDS011;5477;48.806;9.154;2022-12-10T09:28:33;26.33;;;17.70;;
10847;SDS011;5477;48.806;9.154;2022-12-10T09:31:04;22.67;;;15.90;;
10847;SDS011;5477;48.806;9.154;2022-12-10T09:33:43;27.13;;;16.63;;
10847;SDS011;5477;48.806;9.154;2022-12-10T09:36:11;22.50;;;14.97;;
10847;SDS011;5477;48.806;9.154;2022-12-10T09:38:41;25.10;;;16.30;;
10847;SDS011;5477;48.806;9.154;2022-12-10T09:41:18;20.90;;;15.33;;
10847;SDS011;5477;48.806;9.154;2022-12-10T09:43:59;24.67;;;15.90;;
10847;SDS011;5477;48.806;9.154;2022-12-10T09:46:36;23.57;;;15.67;;
10847;SDS011;5477;48.806;9.154;2022-12-10T09:49:13;31.40;;;19.40;;
10847;SDS011;5477;48.806;9.154;2022-12-10T09:51:49;23.20;;;15.40;;
10847;SDS011;5477;48.806;9.154;2022-12-10T09:54:22;26.80;;;17.83;;
10847;SDS011;5477;48.806;9.154;2022-12-10T09:56:54;26.57;;;16.87;;
10847;SDS011;5477;48.806;9.154;2022-12-10T09:59:24;23.63;;;14.30;;
10847;SDS011;5477;48.806;9.154;2022-12-10T10:02:01;25.70;;;16.20;;
10847;SDS011;5477;48.806;9.154;2022-12-10T10:04:38;23.67;;;16.27;;
10847;SDS011;5477;48.806;9.154;2022-12-10T10:07:06;26.10;;;17.07;;
10847;SDS011;5477;48.806;9.154;2022-12-10T10:09:39;27.20;;;17.47;;
10847;SDS011;5477;48.806;9.154;2022-12-10T10:12:10;29.77;;;20.17;;
10847;SDS011;5477;48.806;9.154;2022-12-10T10:14:40;26.13;;;17.53;;
10847;SDS011;5477;48.806;9.154;2022-12-10T10:17:11;22.63;;;15.97;;
10847;SDS011;5477;48.806;9.154;2022-12-10T10:19:46;22.43;;;15.50;;
10847;SDS011;5477;48.806;9.154;2022-12-10T10:22:15;24.57;;;16.57;;
10847;SDS011;5477;48.806;9.154;2022-12-10T10:24:45;21.67;;;14.53;;
10847;SDS011;5477;48.806;9.154;2022-12-10T10:27:14;22.97;;;15.10;;
10847;SDS011;5477;48.806;9.154;2022-12-10T10:29:43;23.23;;;15.67;;
10847;SDS011;5477;48.806;9.154;2022-12-10T10:32:18;23.00;;;15.57;;
10847;SDS011;5477;48.806;9.154;2022-12-10T10:34:52;21.97;;;15.50;;
10847;SDS011;5477;48.806;9.154;2022-12-10T10:37:21;24.10;;;15.60;;
10847;SDS011;5477;48.806;9.154;2022-12-10T10:39:53;22.03;;;15.73;;
10847;SDS011;5477;48.806;9.154;2022-12-10T10:42:27;24.47;;;16.63;;
10847;SDS011;5477;48.806;9.154;2022-12-10T10:45:02;22.17;;;15.67;;
10847;SDS011;5477;48.806;9.154;2022-12-10T10:47:32;23.17;;;16.63;;
10847;SDS011;5477;48.806;9.154;2022-12-10T10:50:03;22.77;;;15.47;;
10847;SDS011;5477;48.806;9.154;2022-12-10T10:52:35;21.70;;;15.37;;
10847;SDS011;5477;48.806;9.154;2022-12-10T10:55:05;23.13;;;14.67;;
10847;SDS011;5477;48.806;9.154;2022-12-10T10:57:53;21.03;;;15.50;;
10847;SDS011;5477;48.806;9.154;2022-12-10T11:00:21;21.70;;;15.33;;
10847;SDS011;5477;48.806;9.154;2022-12-10T11:02:51;18.93;;;13.57;;
10847;SDS011;5477;48.806;9.154;2022-12-10T11:05:20;20.07;;;14.37;;
10847;SDS011;5477;48.806;9.154;2022-12-10T11:07:56;20.27;;;13.33;;
10847;SDS011;5477;48.806;9.154;2022-12-10T11:10:25;19.13;;;14.07;;
10847;SDS011;5477;48.806;9.154;2022-12-10T11:12:55;21.47;;;14.87;;
10847;SDS011;5477;48.806;9.154;2022-12-10T11:15:32;21.30;;;13.27;;
10847;SDS011;5477;48.806;9.154;2022-12-10T11:18:09;20.53;;;13.70;;
10847;SDS011;5477;48.806;9.154;2022-12-10T11:20:58;18.57;;;13.10;;
10847;SDS011;5477;48.806;9.154;2022-12-10T11:23:29;21.90;;;14.17;;
10847;SDS011;5477;48.806;9.154;2022-12-10T11:26:02;19.23;;;14.53;;
10847;SDS011;5477;48.806;9.154;2022-12-10T11:28:47;20.27;;;14.27;;
10847;SDS011;5477;48.806;9.154;2022-12-10T11:31:30;20.40;;;14.23;;
10847;SDS011;5477;48.806;9.154;2022-12-10T11:34:12;19.13;;;13.60;;
10847;SDS011;5477;48.806;9.154;2022-12-10T11:36:47;21.47;;;13.03;;
10847;SDS011;5477;48.806;9.154;2022-12-10T11:39:25;16.20;;;12.10;;
10847;SDS011;5477;48.806;9.154;2022-12-10T11:42:14;17.50;;;12.67;;
10847;SDS011;5477;48.806;9.154;2022-12-10T11:44:52;19.40;;;13.73;;
10847;SDS011;5477;48.806;9.154;2022-12-10T11:47:31;18.80;;;13.17;;
10847;SDS011;5477;48.806;9.154;2022-12-10T11:50:13;18.10;;;13.00;;
10847;SDS011;5477;48.806;9.154;2022-12-10T11:52:51;15.77;;;12.13;;
10847;SDS011;5477;48.806;9.154;2022-12-10T11:55:32;15.90;;;11.50;;
10847;SDS011;5477;48.806;9.154;2022-12-10T11:58:13;21.13;;;13.00;;
10847;SDS011;5477;48.806;9.154;2022-12-10T12:00:56;18.43;;;12.57;;
10847;SDS011;5477;48.806;9.154;2022-12-10T12:03:36;19.60;;;13.53;;
10847;SDS011;5477;48.806;9.154;2022-12-10T12:06:27;17.23;;;12.50;;
10847;SDS011;5477;48.806;9.154;2022-12-10T12:09:19;23.27;;;15.00;;
10847;SDS011;5477;48.806;9.154;2022-12-10T12:12:05;18.93;;;12.57;;
10847;SDS011;5477;48.806;9.154;2022-12-10T12:14:42;19.73;;;13.43;;
10847;SDS011;5477;48.806;9.154;2022-12-10T12:17:15;18.23;;;12.17;;
10847;SDS011;5477;48.806;9.154;2022-12-10T12:19:47;19.07;;;12.43;;
10847;SDS011;5477;48.806;9.154;2022-12-10T12:22:23;19.23;;;12.67;;
10847;SDS011;5477;48.806;9.154;2022-12-10T12:24:54;18.53;;;13.30;;
10847;SDS011;5477;48.806;9.154;2022-12-10T12:27:26;18.57;;;13.43;;
10847;SDS011;5477;48.806;9.154;2022-12-10T12:30:04;21.27;;;14.10;;
10847;SDS011;5477;48.806;9.154;2022-12-10T12:32:40;23.07;;;15.87;;
10847;SDS011;5477;48.806;9.154;2022-12-10T12:35:17;19.83;;;14.13;;
10847;SDS011;5477;48.806;9.154;2022-12-10T12:37:51;22.03;;;16.37;;
10847;SDS011;5477;48.806;9.154;2022-12-10T12:40:25;19.10;;;13.90;;
10847;SDS011;5477;48.806;9.154;2022-12-10T12:42:57;20.23;;;14.53;;
10847;SDS011;5477;48.806;9.154;2022-12-10T12:45:38;25.97;;;16.00;;
10847;SDS011;5477;48.806;9.154;2022-12-10T12:48:14;17.40;;;12.30;;
10847;SDS011;5477;48.806;9.154;2022-12-10T12:50:50;15.93;;;12.53;;
10847;SDS011;5477;48.806;9.154;2022-12-10T12:53:24;17.47;;;12.57;;
10847;SDS011;5477;48.806;9.154;2022-12-10T12:56:02;18.63;;;13.00;;
10847;SDS011;5477;48.806;9.154;2022-12-10T12:58:34;18.60;;;13.10;;
10847;SDS011;5477;48.806;9.154;2022-12-10T13:01:12;23.50;;;14.97;;
10847;SDS011;5477;48.806;9.154;2022-12-10T13:03:48;19.20;;;13.87;;
10847;SDS011;5477;48.806;9.154;2022-12-10T13:06:19;21.20;;;14.50;;
10847;SDS011;5477;48.806;9.154;2022-12-10T13:08:52;21.33;;;14.37;;
10847;SDS011;5477;48.806;9.154;2022-12-10T13:11:32;21.23;;;13.73;;
10847;SDS011;5477;48.806;9.154;2022-12-10T13:14:04;22.17;;;14.53;;
10847;SDS011;5477;48.806;9.154;2022-12-10T13:16:48;21.13;;;13.90;;
10847;SDS011;5477;48.806;9.154;2022-12-10T13:19:26;20.50;;;14.40;;
10847;SDS011;5477;48.806;9.154;2022-12-10T13:21:58;23.77;;;14.30;;
10847;SDS011;5477;48.806;9.154;2022-12-10T13:24:45;21.60;;;14.60;;
10847;SDS011;5477;48.806;9.154;2022-12-10T13:27:32;21.63;;;14.43;;
10847;SDS011;5477;48.806;9.154;2022-12-10T13:30:03;25.30;;;16.27;;
10847;SDS011;5477;48.806;9.154;2022-12-10T13:33:03;20.83;;;13.50;;
10847;SDS011;5477;48.806;9.154;2022-12-10T13:35:56;20.70;;;13.77;;
10847;SDS011;5477;48.806;9.154;2022-12-10T13:38:38;24.63;;;15.83;;
10847;SDS011;5477;48.806;9.154;2022-12-10T13:41:10;21.87;;;15.17;;
10847;SDS011;5477;48.806;9.154;2022-12-10T13:43:57;23.20;;;15.07;;
10847;SDS011;5477;48.806;9.154;2022-12-10T13:46:56;22.37;;;15.97;;
10847;SDS011;5477;48.806;9.154;2022-12-10T13:49:27;22.17;;;15.60;;
10847;SDS011;5477;48.806;9.154;2022-12-10T13:52:00;21.07;;;14.20;;
10847;SDS011;5477;48.806;9.154;2022-12-10T13:57:52;22.30;;;13.93;;
10847;SDS011;5477;48.806;9.154;2022-12-10T14:00:31;21.93;;;14.70;;
10847;SDS011;5477;48.806;9.154;2022-12-10T14:03:21;20.60;;;14.70;;
10847;SDS011;5477;48.806;9.154;2022-12-10T14:06:13;22.97;;;14.33;;
10847;SDS011;5477;48.806;9.154;2022-12-10T14:08:49;21.10;;;14.33;;
10847;SDS011;5477;48.806;9.154;2022-12-10T14:11:27;22.63;;;14.90;;
10847;SDS011;5477;48.806;9.154;2022-12-10T14:14:04;23.07;;;14.07;;
10847;SDS011;5477;48.806;9.154;2022-12-10T14:16:37;23.73;;;13.53;;
10847;SDS011;5477;48.806;9.154;2022-12-10T14:19:07;20.37;;;13.70;;
10847;SDS011;5477;48.806;9.154;2022-12-10T14:21:40;26.20;;;14.57;;
10847;SDS011;5477;48.806;9.154;2022-12-10T14:24:25;21.07;;;14.23;;
10847;SDS011;5477;48.806;9.154;2022-12-10T14:26:56;22.43;;;13.23;;
10847;SDS011;5477;48.806;9.154;2022-12-10T14:29:28;21.70;;;14.63;;
10847;SDS011;5477;48.806;9.154;2022-12-10T14:31:56;25.00;;;15.30;;
10847;SDS011;5477;48.806;9.154;2022-12-10T14:34:25;21.43;;;14.33;;
10847;SDS011;5477;48.806;9.154;2022-12-10T14:36:55;23.03;;;15.50;;
10847;SDS011;5477;48.806;9.154;2022-12-10T14:39:26;22.47;;;14.07;;
10847;SDS011;5477;48.806;9.154;2022-12-10T14:41:56;19.33;;;13.40;;
10847;SDS011;5477;48.806;9.154;2022-12-10T14:44:26;21.77;;;14.07;;
10847;SDS011;5477;48.806;9.154;2022-12-10T14:47:03;23.40;;;14.43;;
10847;SDS011;5477;48.806;9.154;2022-12-10T14:49:37;22.87;;;13.87;;
10847;SDS011;5477;48.806;9.154;2022-12-10T14:52:10;20.87;;;13.10;;
10847;SDS011;5477;48.806;9.154;2022-12-10T14:54:39;22.30;;;13.97;;
10847;SDS011;5477;48.806;9.154;2022-12-10T14:57:08;21.00;;;14.13;;
10847;SDS011;5477;48.806;9.154;2022-12-10T14:59:42;24.27;;;14.57;;
10847;SDS011;5477;48.806;9.154;2022-12-10T15:02:15;21.43;;;14.27;;
10847;SDS011;5477;48.806;9.154;2022-12-10T15:04:47;24.40;;;15.20;;
10847;SDS011;5477;48.806;9.154;2022-12-10T15:07:17;21.90;;;13.70;;
10847;SDS011;5477;48.806;9.154;2022-12-10T15:09:47;23.03;;;13.73;;